createdAt,value
2023-09-01T00:02:14.459Z,99437.32
2023-09-01T00:04:52.026Z,99441.92
2023-09-01T00:07:19.413Z,99446.24
2023-09-01T00:09:46.770Z,99442.10
2023-09-01T00:12:14.599Z,99447.36
2023-09-01T00:14:42.016Z,99443.23
2023-09-01T00:17:10.274Z,99446.07
2023-09-01T00:19:37.750Z,99448.09
2023-09-01T00:22:05.148Z,99449.91
2023-09-01T00:24:33.436Z,99454.53
2023-09-01T00:27:01.223Z,99453.54
2023-09-01T00:29:28.639Z,99459.20
2023-09-01T00:31:56.454Z,99462.83
2023-09-01T00:34:23.909Z,99456.45
2023-09-01T00:36:51.761Z,99461.20
2023-09-01T00:39:19.212Z,99468.01
2023-09-01T00:41:46.683Z,99472.98
2023-09-01T00:44:15.475Z,99478.08
2023-09-01T00:46:47.797Z,99478.02
2023-09-01T00:49:18.304Z,99478.67
2023-09-01T00:51:48.387Z,99477.48
2023-09-01T00:54:16.460Z,99472.08
2023-09-01T00:56:43.856Z,99473.75
2023-09-01T00:59:11.262Z,99470.09
2023-09-01T01:01:38.634Z,99467.62
2023-09-01T01:04:09.291Z,99468.35
2023-09-01T01:06:57.366Z,99461.19
2023-09-01T01:09:30.760Z,99464.95
2023-09-01T01:12:18.665Z,99466.47
2023-09-01T01:14:53.960Z,99467.36
2023-09-01T01:17:21.473Z,99464.78
2023-09-01T01:19:55.715Z,99470.93
2023-09-01T01:22:44.206Z,99474.48
2023-09-01T01:25:12.335Z,99470.44
2023-09-01T01:27:42.882Z,99473.21
2023-09-01T01:30:15.085Z,99473.94
2023-09-01T01:32:42.986Z,99474.11
2023-09-01T01:35:16.523Z,99477.11
2023-09-01T01:37:51.336Z,99484.77
2023-09-01T01:40:19.635Z,99486.09
2023-09-01T01:42:48.594Z,99489.60
2023-09-01T01:45:21.965Z,99488.08
2023-09-01T01:47:50.443Z,99480.64
2023-09-01T01:50:18.269Z,99480.91
2023-09-01T01:52:45.970Z,99476.92
2023-09-01T01:55:13.376Z,99477.82
2023-09-01T01:57:42.397Z,99473.91
2023-09-01T02:00:16.298Z,99471.75
2023-09-01T02:02:47.436Z,99476.85
2023-09-01T02:05:15.018Z,99473.85
2023-09-01T02:07:42.461Z,99469.98
2023-09-01T02:10:10.079Z,99473.66
2023-09-01T02:12:37.529Z,99476.45
2023-09-01T02:15:10.266Z,99478.42
2023-09-01T02:17:38.365Z,99478.02
2023-09-01T02:20:19.520Z,99476.15
2023-09-01T02:22:49.513Z,99480.06
2023-09-01T02:25:16.968Z,99482.08
2023-09-01T02:27:44.548Z,99488.96
2023-09-01T02:30:13.565Z,99492.73
2023-09-01T02:32:41.445Z,99496.77
2023-09-01T02:35:09.851Z,99500.86
2023-09-01T02:37:37.680Z,99504.92
2023-09-01T02:40:15.186Z,99508.98
2023-09-01T02:42:42.967Z,99513.45
2023-09-01T02:45:15.556Z,99510.26
2023-09-01T02:47:44.791Z,99515.36
2023-09-01T02:50:12.405Z,99515.21
2023-09-01T02:52:39.862Z,99514.72
2023-09-01T02:55:07.848Z,99516.90
2023-09-01T02:57:36.550Z,99518.77
2023-09-01T03:00:25.199Z,99517.52
2023-09-01T03:02:52.792Z,99517.71
2023-09-01T03:05:20.442Z,99514.83
2023-09-01T03:07:47.808Z,99510.83
2023-09-01T03:10:15.191Z,99509.76
2023-09-01T03:12:42.513Z,99515.89
2023-09-01T03:15:10.843Z,99514.98
2023-09-01T03:17:38.740Z,99515.04
2023-09-01T03:20:06.940Z,99513.77
2023-09-01T03:22:34.513Z,99515.85
2023-09-01T03:25:02.731Z,99517.33
2023-09-01T03:27:31.336Z,99519.80
2023-09-01T03:29:58.810Z,99525.17
2023-09-01T03:32:30.835Z,99524.29
2023-09-01T03:34:58.263Z,99529.11
2023-09-01T03:37:25.792Z,99532.25
2023-09-01T03:39:53.223Z,99536.04
2023-09-01T03:42:20.640Z,99530.11
2023-09-01T03:44:49.781Z,99526.26
2023-09-01T03:47:17.095Z,99530.02
2023-09-01T03:49:44.896Z,99530.89
2023-09-01T03:52:12.312Z,99530.41
2023-09-01T03:54:39.638Z,99531.91
2023-09-01T03:57:07.063Z,99537.70
2023-09-01T03:59:34.429Z,99540.35
2023-09-01T04:02:05.525Z,99546.81
2023-09-01T04:04:33.327Z,99546.65
2023-09-01T04:07:00.697Z,99545.55
2023-09-01T04:09:28.701Z,99552.70
2023-09-01T04:11:56.661Z,99554.05
2023-09-01T04:14:24.072Z,99555.69
2023-09-01T04:16:51.469Z,99554.77
2023-09-01T04:19:18.917Z,99553.36
2023-09-01T04:21:46.456Z,99553.58
2023-09-01T04:24:13.907Z,99544.91
2023-09-01T04:26:42.117Z,99542.39
2023-09-01T04:29:09.524Z,99543.75
2023-09-01T04:31:36.964Z,99542.64
2023-09-01T04:34:04.834Z,99546.64
2023-09-01T04:36:46.673Z,99546.14
2023-09-01T04:39:17.911Z,99545.21
2023-09-01T04:41:45.362Z,99544.34
2023-09-01T04:44:15.192Z,99542.91
2023-09-01T04:46:42.691Z,99546.92
2023-09-01T04:49:10.210Z,99546.27
2023-09-01T04:51:38.396Z,99546.05
2023-09-01T04:54:05.859Z,99547.68
2023-09-01T04:56:34.207Z,99542.25
2023-09-01T04:59:01.680Z,99545.73
2023-09-01T05:01:29.168Z,99544.61
2023-09-01T05:03:56.791Z,99545.72
2023-09-01T05:06:24.250Z,99552.27
2023-09-01T05:08:51.698Z,99553.38
2023-09-01T05:11:19.110Z,99558.11
2023-09-01T05:13:46.512Z,99565.40
2023-09-01T05:16:14.757Z,99568.85
2023-09-01T05:18:43.253Z,99571.80
2023-09-01T05:21:11.423Z,99572.91
2023-09-01T05:23:40.880Z,99575.39
2023-09-01T05:26:08.387Z,99580.05
2023-09-01T05:28:35.772Z,99581.59
2023-09-01T05:31:04.216Z,99588.45
2023-09-01T05:33:34.600Z,99589.84
2023-09-01T05:36:02.866Z,99595.63
2023-09-01T05:38:30.260Z,99603.11
2023-09-01T05:40:58.674Z,99606.05
2023-09-01T05:43:26.542Z,99607.58
2023-09-01T05:45:56.688Z,99608.81
2023-09-01T05:48:26.493Z,99612.06
2023-09-01T05:50:54.537Z,99614.41
2023-09-01T05:53:27.513Z,99617.74
2023-09-01T05:55:55.042Z,99615.67
2023-09-01T05:58:22.349Z,99613.28
2023-09-01T06:00:50.925Z,99612.89
2023-09-01T06:03:18.559Z,99609.74
2023-09-01T06:05:46.106Z,99606.55
2023-09-01T06:08:13.737Z,99610.35
2023-09-01T06:10:41.582Z,99612.06
2023-09-01T06:13:09.006Z,99610.36
2023-09-01T06:15:36.527Z,99606.73
2023-09-01T06:18:04.396Z,99605.73
2023-09-01T06:20:31.854Z,99604.54
2023-09-01T06:22:59.268Z,99602.56
2023-09-01T06:25:26.726Z,99601.95
2023-09-01T06:27:54.061Z,99607.91
2023-09-01T06:30:21.503Z,99607.48
2023-09-01T06:32:49.906Z,99609.39
2023-09-01T06:35:18.555Z,99606.04
2023-09-01T06:37:45.989Z,99607.43
2023-09-01T06:40:13.389Z,99601.70
2023-09-01T06:42:40.808Z,99602.56
2023-09-01T06:45:08.761Z,99603.97
2023-09-01T06:47:37.121Z,99607.85
2023-09-01T06:50:05.052Z,99610.96
2023-09-01T06:52:32.460Z,99610.85
2023-09-01T06:55:00.858Z,99606.88
2023-09-01T06:57:29.027Z,99612.11
2023-09-01T06:59:56.367Z,99614.96
2023-09-01T07:02:23.818Z,99614.21
2023-09-01T07:04:51.400Z,99611.79
2023-09-01T07:07:19.029Z,99610.08
2023-09-01T07:09:46.406Z,99602.63
2023-09-01T07:12:13.839Z,99601.83
2023-09-01T07:14:41.192Z,99596.16
2023-09-01T07:17:08.647Z,99598.20
2023-09-01T07:19:36.028Z,99600.17
2023-09-01T07:22:04.546Z,99597.23
2023-09-01T07:24:32.791Z,99597.01
2023-09-01T07:27:00.154Z,99597.05
2023-09-01T07:29:27.784Z,99597.26
2023-09-01T07:31:55.436Z,99596.19
2023-09-01T07:34:22.878Z,99594.05
2023-09-01T07:36:50.385Z,99594.41
2023-09-01T07:39:17.790Z,99597.49
2023-09-01T07:41:45.191Z,99601.39
2023-09-01T07:44:17.516Z,99600.92
2023-09-01T07:46:44.933Z,99595.94
2023-09-01T07:49:12.476Z,99597.33
2023-09-01T07:51:39.914Z,99593.55
2023-09-01T07:54:07.638Z,99597.66
2023-09-01T07:56:35.001Z,99598.57
2023-09-01T07:59:04.082Z,99596.63
2023-09-01T08:01:31.479Z,99597.36
2023-09-01T08:04:01.913Z,99596.73
2023-09-01T08:06:32.246Z,99595.35
2023-09-01T08:08:59.616Z,99591.77
2023-09-01T08:11:27.270Z,99586.05
2023-09-01T08:13:54.694Z,99583.77
2023-09-01T08:16:22.171Z,99585.98
2023-09-01T08:18:49.766Z,99588.11
2023-09-01T08:21:17.119Z,99589.33
2023-09-01T08:23:44.513Z,99587.14
2023-09-01T08:26:11.993Z,99586.70
2023-09-01T08:28:39.406Z,99585.79
2023-09-01T08:31:06.834Z,99590.77
2023-09-01T08:33:34.418Z,99593.53
2023-09-01T08:36:04.353Z,99597.04
2023-09-01T08:38:31.873Z,99592.77
2023-09-01T08:41:03.945Z,99592.33
2023-09-01T08:43:34.559Z,99591.75
2023-09-01T08:46:14.535Z,99595.02
2023-09-01T08:48:42.804Z,99601.23
2023-09-01T08:51:10.900Z,99604.95
2023-09-01T08:53:40.627Z,99606.84
2023-09-01T08:56:08.533Z,99606.52
2023-09-01T08:58:37.342Z,99601.18
2023-09-01T09:01:04.981Z,99599.40
2023-09-01T09:03:34.469Z,99596.73
2023-09-01T09:06:04.309Z,99591.78
2023-09-01T09:08:31.758Z,99593.14
2023-09-01T09:10:59.241Z,99591.11
2023-09-01T09:13:30.942Z,99593.89
2023-09-01T09:16:08.972Z,99594.88
2023-09-01T09:18:37.470Z,99596.05
2023-09-01T09:21:05.008Z,99595.70
2023-09-01T09:23:45.739Z,99593.91
2023-09-01T09:26:13.330Z,99594.45
2023-09-01T09:28:40.934Z,99597.84
2023-09-01T09:31:08.340Z,99596.65
2023-09-01T09:33:37.100Z,99597.25
2023-09-01T09:36:04.951Z,99604.00
2023-09-01T09:38:42.733Z,99605.19
2023-09-01T09:41:10.279Z,99604.70
2023-09-01T09:43:45.749Z,99607.48
2023-09-01T09:46:13.766Z,99607.44
2023-09-01T09:48:41.529Z,99612.13
2023-09-01T09:51:09.316Z,99614.88
2023-09-01T09:53:39.134Z,99611.31
2023-09-01T09:56:19.449Z,99618.54
2023-09-01T09:58:47.881Z,99621.32
2023-09-01T10:01:19.490Z,99622.02
2023-09-01T10:03:48.944Z,99627.20
2023-09-01T10:06:18.095Z,99624.55
2023-09-01T10:08:46.008Z,99625.79
2023-09-01T10:11:16.546Z,99627.14
2023-09-01T10:13:46.286Z,99628.25
2023-09-01T10:16:15.872Z,99632.26
2023-09-01T10:18:44.215Z,99629.98
2023-09-01T10:21:12.748Z,99632.85
2023-09-01T10:23:40.144Z,99635.34
2023-09-01T10:26:18.098Z,99633.84
2023-09-01T10:29:02.674Z,99633.29
2023-09-01T10:31:30.298Z,99637.40
2023-09-01T10:34:09.808Z,99638.05
2023-09-01T10:36:38.391Z,99637.16
2023-09-01T10:39:18.233Z,99641.25
2023-09-01T10:41:55.776Z,99632.02
2023-09-01T10:44:23.247Z,99633.76
2023-09-01T10:46:50.718Z,99637.77
2023-09-01T10:49:18.465Z,99635.47
2023-09-01T10:51:47.763Z,99633.48
2023-09-01T10:54:15.224Z,99631.30
2023-09-01T10:56:59.485Z,99638.83
2023-09-01T10:59:36.179Z,99635.80
2023-09-01T11:02:23.789Z,99638.83
2023-09-01T11:04:51.241Z,99639.90
2023-09-01T11:07:18.725Z,99636.88
2023-09-01T11:09:48.406Z,99646.07
2023-09-01T11:12:15.857Z,99643.08
2023-09-01T11:15:00.554Z,99639.95
2023-09-01T11:17:36.062Z,99639.35
2023-09-01T11:20:06.366Z,99639.46
2023-09-01T11:22:34.319Z,99632.70
2023-09-01T11:25:01.695Z,99632.73
2023-09-01T11:28:16.224Z,99636.38
2023-09-01T11:30:57.491Z,99640.77
2023-09-01T11:33:26.256Z,99638.61
2023-09-01T11:36:11.511Z,99641.23
2023-09-01T11:38:40.540Z,99641.54
2023-09-01T11:41:09.397Z,99645.61
2023-09-01T11:43:36.893Z,99639.79
2023-09-01T11:46:05.269Z,99637.75
2023-09-01T11:48:32.996Z,99636.37
2023-09-01T11:51:00.463Z,99634.62
2023-09-01T11:53:29.399Z,99637.85
2023-09-01T11:56:00.062Z,99637.34
2023-09-01T11:58:33.929Z,99639.64
2023-09-01T12:01:15.564Z,99640.87
2023-09-01T12:03:49.308Z,99638.39
2023-09-01T12:06:24.538Z,99635.80
2023-09-01T12:09:14.553Z,99632.40
2023-09-01T12:11:55.051Z,99636.31
2023-09-01T12:14:27.760Z,99635.73
2023-09-01T12:16:55.855Z,99634.58
2023-09-01T12:19:23.962Z,99629.98
2023-09-01T12:21:52.106Z,99633.98
2023-09-01T12:24:19.484Z,99635.02
2023-09-01T12:26:50.695Z,99637.64
2023-09-01T12:29:19.168Z,99634.06
2023-09-01T12:31:47.111Z,99637.28
2023-09-01T12:34:14.676Z,99634.27
2023-09-01T12:36:42.027Z,99630.95
2023-09-01T12:39:09.419Z,99636.22
2023-09-01T12:41:36.835Z,99638.27
2023-09-01T12:44:04.356Z,99640.06
2023-09-01T12:46:31.738Z,99637.17
2023-09-01T12:48:59.084Z,99635.91
2023-09-01T12:51:26.452Z,99634.50
2023-09-01T12:53:53.950Z,99633.90
2023-09-01T12:56:21.316Z,99632.86
2023-09-01T12:58:48.775Z,99628.16
2023-09-01T13:01:16.157Z,99625.83
2023-09-01T13:03:43.545Z,99627.94
2023-09-01T13:06:11.410Z,99626.42
2023-09-01T13:08:38.889Z,99623.61
2023-09-01T13:11:13.158Z,99626.14
2023-09-01T13:13:40.837Z,99625.98
2023-09-01T13:16:10.632Z,99629.56
2023-09-01T13:18:40.461Z,99630.59
2023-09-01T13:21:08.060Z,99634.14
2023-09-01T13:23:35.417Z,99631.79
2023-09-01T13:26:02.773Z,99629.05
2023-09-01T13:28:32.378Z,99627.96
2023-09-01T13:31:01.080Z,99628.34
2023-09-01T13:33:28.657Z,99633.55
2023-09-01T13:35:56.234Z,99630.98
2023-09-01T13:38:23.606Z,99633.56
2023-09-01T13:40:56.202Z,99632.32
2023-09-01T13:43:23.603Z,99633.06
2023-09-01T13:45:51.020Z,99632.10
2023-09-01T13:48:18.428Z,99634.25
2023-09-01T13:50:45.955Z,99631.33
2023-09-01T13:53:13.683Z,99634.95
2023-09-01T13:55:41.261Z,99638.25
2023-09-01T13:58:08.673Z,99637.54
2023-09-01T14:00:36.052Z,99647.04
2023-09-01T14:03:04.050Z,99646.66
2023-09-01T14:05:31.571Z,99641.00
2023-09-01T14:07:58.986Z,99643.30
2023-09-01T14:10:26.800Z,99653.83
2023-09-01T14:12:54.127Z,99654.47
2023-09-01T14:15:21.532Z,99655.19
2023-09-01T14:17:48.943Z,99651.91
2023-09-01T14:20:16.437Z,99655.18
2023-09-01T14:22:43.772Z,99660.05
2023-09-01T14:25:11.229Z,99666.80
2023-09-01T14:27:38.519Z,99673.73
2023-09-01T14:30:06.610Z,99679.63
2023-09-01T14:32:33.981Z,99684.48
2023-09-01T14:35:01.341Z,99684.70
2023-09-01T14:37:28.678Z,99689.17
2023-09-01T14:39:56.105Z,99693.42
2023-09-01T14:42:23.539Z,99697.02
2023-09-01T14:44:50.903Z,99700.02
2023-09-01T14:47:18.270Z,99699.64
2023-09-01T14:49:45.712Z,99703.11
2023-09-01T14:52:13.830Z,99702.39
2023-09-01T14:54:41.349Z,99707.25
2023-09-01T14:57:08.769Z,99707.66
2023-09-01T14:59:36.346Z,99711.58
2023-09-01T15:02:05.812Z,99715.79
2023-09-01T15:04:33.364Z,99716.75
2023-09-01T15:07:00.706Z,99715.83
2023-09-01T15:09:28.183Z,99708.41
2023-09-01T15:11:55.713Z,99711.40
2023-09-01T15:14:23.087Z,99715.59
2023-09-01T15:16:50.808Z,99718.67
2023-09-01T15:19:18.301Z,99722.41
2023-09-01T15:21:45.735Z,99726.59
2023-09-01T15:24:13.200Z,99722.52
2023-09-01T15:26:40.618Z,99725.35
2023-09-01T15:29:08.103Z,99728.02
2023-09-01T15:31:35.541Z,99726.25
2023-09-01T15:34:03.099Z,99729.77
2023-09-01T15:36:30.473Z,99729.49
2023-09-01T15:38:57.931Z,99729.95
2023-09-01T15:41:25.565Z,99731.94
2023-09-01T15:43:53.128Z,99734.59
2023-09-01T15:46:20.659Z,99737.55
2023-09-01T15:48:48.023Z,99741.44
2023-09-01T15:51:15.429Z,99744.90
2023-09-01T15:53:42.816Z,99743.63
2023-09-01T15:56:10.236Z,99746.71
2023-09-01T15:58:37.584Z,99752.22
2023-09-01T16:01:22.889Z,99750.75
2023-09-01T16:03:55.379Z,99749.62
2023-09-01T16:06:26.413Z,99755.78
2023-09-01T16:08:54.129Z,99755.31
2023-09-01T16:11:21.675Z,99755.02
2023-09-01T16:13:50.897Z,99749.88
2023-09-01T16:16:18.865Z,99752.05
2023-09-01T16:18:46.432Z,99754.06
2023-09-01T16:21:13.786Z,99756.53
2023-09-01T16:23:41.159Z,99760.52
2023-09-01T16:26:09.105Z,99761.58
2023-09-01T16:28:36.645Z,99761.42
2023-09-01T16:31:04.448Z,99766.41
2023-09-01T16:33:31.911Z,99765.55
2023-09-01T16:36:00.589Z,99768.92
2023-09-01T16:38:30.447Z,99770.95
2023-09-01T16:41:00.001Z,99768.89
2023-09-01T16:43:27.746Z,99768.10
2023-09-01T16:45:55.174Z,99767.23
2023-09-01T16:48:25.133Z,99762.95
2023-09-01T16:50:52.700Z,99769.26
2023-09-01T16:53:20.314Z,99769.61
2023-09-01T16:55:48.013Z,99771.11
2023-09-01T16:58:15.437Z,99768.24
2023-09-01T17:00:43.013Z,99764.31
2023-09-01T17:03:10.782Z,99768.63
2023-09-01T17:05:38.747Z,99763.73
2023-09-01T17:08:06.429Z,99766.52
2023-09-01T17:10:33.977Z,99770.61
2023-09-01T17:13:01.661Z,99775.15
2023-09-01T17:15:29.062Z,99783.45
2023-09-01T17:17:57.225Z,99785.86
2023-09-01T17:20:27.898Z,99785.87
2023-09-01T17:22:55.570Z,99788.08
2023-09-01T17:25:23.213Z,99790.74
2023-09-01T17:27:50.698Z,99797.46
2023-09-01T17:30:21.083Z,99793.05
2023-09-01T17:32:48.480Z,99795.11
2023-09-01T17:35:15.966Z,99793.77
2023-09-01T17:37:43.300Z,99797.02
2023-09-01T17:40:11.398Z,99798.00
2023-09-01T17:42:39.148Z,99800.47
2023-09-01T17:45:07.131Z,99802.73
2023-09-01T17:47:34.881Z,99802.23
2023-09-01T17:50:02.285Z,99810.76
2023-09-01T17:52:29.709Z,99817.94
2023-09-01T17:54:57.095Z,99817.98
2023-09-01T17:57:26.292Z,99817.61
2023-09-01T17:59:54.460Z,99819.32
2023-09-01T18:02:21.904Z,99820.06
2023-09-01T18:04:49.374Z,99820.08
2023-09-01T18:07:19.826Z,99824.11
2023-09-01T18:09:47.176Z,99829.09
2023-09-01T18:12:14.517Z,99832.50
2023-09-01T18:14:41.897Z,99833.76
2023-09-01T18:17:10.447Z,99832.19
2023-09-01T18:19:39.689Z,99834.03
2023-09-01T18:22:08.889Z,99834.05
2023-09-01T18:24:36.494Z,99838.39
2023-09-01T18:27:07.470Z,99835.01
2023-09-01T18:29:34.817Z,99842.33
2023-09-01T18:32:02.344Z,99839.95
2023-09-01T18:34:32.663Z,99842.96
2023-09-01T18:37:04.452Z,99845.92
2023-09-01T18:39:35.747Z,99851.85
2023-09-01T18:42:07.099Z,99854.39
2023-09-01T18:44:34.519Z,99855.27
2023-09-01T18:47:05.071Z,99861.59
2023-09-01T18:49:32.697Z,99864.54
2023-09-01T18:52:02.321Z,99872.88
2023-09-01T18:54:31.000Z,99876.67
2023-09-01T18:57:00.094Z,99884.27
2023-09-01T18:59:27.731Z,99888.76
2023-09-01T19:01:55.395Z,99893.70
2023-09-01T19:04:22.853Z,99898.98
2023-09-01T19:06:50.240Z,99902.36
2023-09-01T19:09:18.487Z,99905.87
2023-09-01T19:11:46.553Z,99906.14
2023-09-01T19:14:14.026Z,99906.17
2023-09-01T19:16:44.751Z,99905.32
2023-09-01T19:19:12.210Z,99908.11
2023-09-01T19:21:39.549Z,99909.02
2023-09-01T19:24:07.011Z,99906.92
2023-09-01T19:26:34.451Z,99910.59
2023-09-01T19:29:02.871Z,99914.05
2023-09-01T19:31:30.423Z,99915.35
2023-09-01T19:34:01.925Z,99916.38
2023-09-01T19:36:30.577Z,99921.19
2023-09-01T19:39:00.473Z,99923.59
2023-09-01T19:41:28.701Z,99927.45
2023-09-01T19:43:57.242Z,99929.35
2023-09-01T19:46:24.656Z,99932.52
2023-09-01T19:48:54.881Z,99933.21
2023-09-01T19:51:22.633Z,99936.80
2023-09-01T19:53:50.121Z,99939.70
2023-09-01T19:56:19.540Z,99940.99
2023-09-01T19:58:51.186Z,99949.89
2023-09-01T20:01:21.974Z,99952.60
2023-09-01T20:03:49.714Z,99953.52
2023-09-01T20:06:17.687Z,99952.39
2023-09-01T20:08:45.124Z,99950.42
2023-09-01T20:11:19.874Z,99949.40
2023-09-01T20:13:49.522Z,99950.83
2023-09-01T20:16:21.072Z,99953.58
2023-09-01T20:18:48.407Z,99956.00
2023-09-01T20:21:16.366Z,99962.27
2023-09-01T20:23:43.860Z,99964.00
2023-09-01T20:26:11.242Z,99969.52
2023-09-01T20:28:38.654Z,99973.63
2023-09-01T20:31:06.331Z,99979.19
2023-09-01T20:33:33.786Z,99981.58
2023-09-01T20:36:01.154Z,99980.91
2023-09-01T20:38:28.647Z,99983.27
2023-09-01T20:40:56.133Z,99981.14
2023-09-01T20:43:23.489Z,99980.46
2023-09-01T20:45:52.215Z,99987.86
2023-09-01T20:48:19.668Z,99987.39
2023-09-01T20:50:47.187Z,99988.60
2023-09-01T20:53:15.150Z,99988.83
2023-09-01T20:55:42.933Z,99985.16
2023-09-01T20:58:10.351Z,99986.88
2023-09-01T21:00:39.765Z,99988.11
2023-09-01T21:03:07.287Z,99991.15
2023-09-01T21:05:34.855Z,99995.33
2023-09-01T21:08:02.341Z,99999.74
2023-09-01T21:10:29.796Z,100001.84
2023-09-01T21:12:57.180Z,100000.39
2023-09-01T21:15:24.778Z,99999.20
2023-09-01T21:17:52.739Z,99995.75
2023-09-01T21:20:20.246Z,99999.98
2023-09-01T21:22:47.798Z,99999.89
2023-09-01T21:25:15.333Z,100004.45
2023-09-01T21:27:42.719Z,100009.56
2023-09-01T21:30:15.302Z,100010.52
2023-09-01T21:32:43.004Z,100012.14
2023-09-01T21:35:11.064Z,100010.20
2023-09-01T21:37:38.528Z,100015.22
2023-09-01T21:40:08.821Z,100016.05
2023-09-01T21:42:37.593Z,100011.54
2023-09-01T21:45:05.556Z,100015.06
2023-09-01T21:47:33.544Z,100020.38
2023-09-01T21:50:01.044Z,100017.48
2023-09-01T21:52:28.706Z,100024.55
2023-09-01T21:54:56.063Z,100025.17
2023-09-01T21:57:23.484Z,100029.97
2023-09-01T21:59:50.970Z,100029.94
2023-09-01T22:02:18.416Z,100033.16
2023-09-01T22:04:45.778Z,100030.00
2023-09-01T22:07:13.150Z,100029.02
2023-09-01T22:09:40.480Z,100031.38
2023-09-01T22:12:07.942Z,100031.77
2023-09-01T22:14:37.219Z,100035.50
2023-09-01T22:17:06.372Z,100035.58
2023-09-01T22:19:33.841Z,100036.36
2023-09-01T22:22:01.320Z,100042.97
2023-09-01T22:24:32.246Z,100042.42
2023-09-01T22:27:00.118Z,100043.91
2023-09-01T22:29:28.424Z,100046.51
2023-09-01T22:31:58.105Z,100046.09
2023-09-01T22:34:25.539Z,100049.39
2023-09-01T22:36:52.948Z,100052.11
2023-09-01T22:39:20.334Z,100052.24
2023-09-01T22:41:47.673Z,100055.88
2023-09-01T22:44:15.087Z,100063.34
2023-09-01T22:46:42.514Z,100062.16
2023-09-01T22:49:09.898Z,100065.82
2023-09-01T22:51:38.591Z,100066.48
2023-09-01T22:54:06.014Z,100061.45
2023-09-01T22:56:33.452Z,100057.67
2023-09-01T22:59:00.827Z,100054.23
2023-09-01T23:01:28.255Z,100055.52
2023-09-01T23:03:55.639Z,100051.70
2023-09-01T23:06:23.065Z,100049.54
2023-09-01T23:08:50.441Z,100054.02
2023-09-01T23:11:20.401Z,100055.84
2023-09-01T23:13:47.889Z,100057.09
2023-09-01T23:16:15.287Z,100052.27
2023-09-01T23:18:42.713Z,100051.29
2023-09-01T23:21:10.129Z,100048.73
2023-09-01T23:23:37.498Z,100048.59
2023-09-01T23:26:04.881Z,100048.08
2023-09-01T23:28:32.308Z,100042.88
2023-09-01T23:30:59.740Z,100041.25
2023-09-01T23:33:27.124Z,100049.61
2023-09-01T23:35:54.861Z,100049.34
2023-09-01T23:38:22.276Z,100056.17
2023-09-01T23:40:50.824Z,100060.20
2023-09-01T23:46:07.183Z,100063.83
2023-09-01T23:48:34.717Z,100069.73
2023-09-01T23:51:02.128Z,100062.55
2023-09-01T23:53:29.594Z,100063.41
2023-09-01T23:55:57.087Z,100069.49
2023-09-01T23:58:24.729Z,100075.80
